Time;durP1;ratioP1;P1;durP2;ratioP2;P2;SDS_P1;SDS_P2;PMS_P1;PMS_P2;Temp;Humidity;BMP_temperature;BMP_pressure;BME280_temperature;BME280_humidity;BME280_pressure;Samples;Min_cycle;Max_cycle;Signal;HPM_P1;HPM_P2
2022/03/09 00:02:02;;;;;;;16.83;9.05;;;3.20;99.90;;;;;;4831687;29;20060;-72
2022/03/09 00:04:29;;;;;;;17.75;8.95;;;;;;;;;;4846905;29;20049;-72
2022/03/09 00:06:55;;;;;;;18.05;9.15;;;;;;;;;;4846845;29;20049;-72
2022/03/09 00:09:21;;;;;;;18.65;8.85;;;;;;;;;;4828294;29;20046;-72
2022/03/09 00:11:47;;;;;;;18.55;8.63;;;;;;;;;;4843857;29;20409;-72
2022/03/09 00:14:13;;;;;;;18.27;9.25;;;;;;;;;;4843590;29;20098;-72
2022/03/09 00:16:39;;;;;;;21.70;9.23;;;;;;;;;;4861909;29;20042;-72
2022/03/09 00:19:05;;;;;;;17.05;8.93;;;;;;;;;;4828180;29;20044;-71
2022/03/09 00:21:31;;;;;;;21.90;8.82;;;;;;;;;;4840845;29;20049;-71
2022/03/09 00:23:57;;;;;;;19.77;9.60;;;;;;;;;;4846713;29;20418;-72
2022/03/09 00:26:23;;;;;;;20.80;10.27;;;;;;;;;;4806823;29;20128;-72
2022/03/09 00:28:49;;;;;;;20.25;9.15;;;;;;;;;;4834586;29;20038;-72
2022/03/09 00:31:15;;;;;;;24.48;9.63;;;;;;;;;;4846414;29;20041;-71
2022/03/09 00:33:42;;;;;;;22.88;9.93;;;;;;;;;;4841701;29;20402;-72
2022/03/09 00:36:08;;;;;;;19.88;9.45;;;;;;;;;;4835377;29;20042;-72
2022/03/09 00:38:34;;;;;;;24.42;11.10;;;;;;;;;;4846492;29;20240;-71
2022/03/09 00:41:02;;;;;;;20.80;9.77;;;;;;;;;;4846286;29;20041;-71
2022/03/09 00:43:28;;;;;;;25.33;10.80;;;3.20;99.10;;;;;;4846327;29;20187;-71
2022/03/09 00:45:55;;;;;;;18.30;9.65;;;;;;;;;;4845655;29;20045;-71
2022/03/09 00:48:21;;;;;;;20.67;9.52;;;;;;;;;;4864440;29;20048;-72
2022/03/09 00:50:47;;;;;;;23.95;10.07;;;;;;;;;;4864286;29;20097;-72
2022/03/09 00:53:13;;;;;;;24.52;10.27;;;;;;;;;;4864620;29;20045;-72
2022/03/09 00:55:39;;;;;;;25.10;10.82;;;;;;;;;;4864055;29;20089;-72
2022/03/09 00:58:06;;;;;;;23.70;10.77;;;;;;;;;;4864606;29;20569;-71
2022/03/09 01:00:32;;;;;;;22.10;10.65;;;;;;;;;;4863354;29;20089;-72
2022/03/09 01:02:58;;;;;;;22.67;10.85;;;;;;;;;;4864252;29;20045;-71
2022/03/09 01:05:24;;;;;;;23.15;11.00;;;;;;;;;;4864009;29;20051;-72
2022/03/09 01:07:50;;;;;;;22.00;10.85;;;;;;;;;;4864451;29;20489;-72
2022/03/09 01:10:17;;;;;;;22.48;10.40;;;;;;;;;;4863949;29;20528;-72
2022/03/09 01:12:45;;;;;;;23.60;10.23;;;;;;;;;;4864275;29;20100;-72
2022/03/09 01:15:11;;;;;;;25.90;11.93;;;;;;;;;;4845785;29;20041;-72
2022/03/09 01:17:37;;;;;;;22.75;11.25;;;;;;;;;;4864050;29;20072;-71
2022/03/09 01:20:03;;;;;;;27.45;11.70;;;;;;;;;;4845777;29;20068;-72
2022/03/09 01:22:29;;;;;;;23.33;11.20;;;;;;;;;;4879041;29;20128;-72
2022/03/09 01:24:55;;;;;;;26.85;12.35;;;;;;;;;;4860596;29;20041;-71
2022/03/09 01:27:21;;;;;;;21.15;11.38;;;;;;;;;;4861487;29;20056;-72
2022/03/09 01:29:47;;;;;;;26.75;12.30;;;;;;;;;;4842353;29;20053;-72
2022/03/09 01:32:13;;;;;;;25.48;11.88;;;;;;;;;;4857628;29;20041;-72
2022/03/09 01:34:40;;;;;;;24.30;12.13;;;;;;;;;;4850250;29;20033;-72
2022/03/09 01:37:06;;;;;;;24.20;10.95;;;;;;;;;;4863843;29;20455;-71
2022/03/09 01:39:32;;;;;;;34.72;12.13;;;;;;;;;;4863641;29;20037;-72
2022/03/09 01:41:58;;;;;;;25.65;12.00;;;;;;;;;;4863765;29;20501;-72
2022/03/09 01:44:24;;;;;;;23.30;11.88;;;;;;;;;;4848169;29;20393;-72
2022/03/09 01:46:52;;;;;;;25.17;11.63;;;2.90;99.90;;;;;;4863465;29;20215;-72
2022/03/09 01:49:18;;;;;;;28.73;12.85;;;;;;;;;;4863499;29;20075;-72
2022/03/09 01:51:47;;;;;;;26.60;11.75;;;3.00;99.90;;;;;;4863567;29;20053;-72
2022/03/09 01:54:14;;;;;;;23.63;12.40;;;;;;;;;;4846243;29;20042;-72
2022/03/09 01:56:40;;;;;;;25.27;11.98;;;;;;;;;;4844928;29;20037;-71
2022/03/09 01:59:08;;;;;;;25.63;12.05;;;3.00;99.90;;;;;;4845139;29;20124;-72
2022/03/09 02:01:34;;;;;;;28.77;12.55;;;;;;;;;;4861196;29;20430;-72
2022/03/09 02:04:01;;;;;;;29.58;12.23;;;2.90;99.90;;;;;;4863295;29;20117;-72
2022/03/09 02:06:27;;;;;;;28.02;12.65;;;;;;;;;;4860002;29;20506;-72
2022/03/09 02:11:39;;;;;;;28.88;13.10;;;;;;;;;;4862908;29;20454;-71
2022/03/09 02:14:06;;;;;;;25.25;11.70;;;;;;;;;;4863326;29;20045;-72
2022/03/09 02:16:32;;;;;;;24.67;12.63;;;;;;;;;;4844697;29;20073;-72
2022/03/09 02:19:01;;;;;;;29.48;13.05;;;2.60;99.90;;;;;;4845008;29;20405;-72
2022/03/09 02:21:29;;;;;;;27.65;13.32;;;2.60;99.90;;;;;;4878626;29;20457;-72
2022/03/09 02:23:55;;;;;;;31.33;13.20;;;;;;;;;;4878606;29;20398;-72
2022/03/09 02:26:22;;;;;;;28.67;13.00;;;;;;;;;;4852373;29;20109;-72
2022/03/09 02:28:48;;;;;;;29.38;13.00;;;;;;;;;;4845014;29;20049;-72
2022/03/09 02:31:14;;;;;;;26.65;13.10;;;;;;;;;;4857167;29;20049;-72
2022/03/09 02:33:45;;;;;;;30.40;13.65;;;3.00;99.90;;;;;;4844370;29;20516;-72
2022/03/09 02:36:11;;;;;;;36.22;13.38;;;;;;;;;;4844768;29;20486;-71
2022/03/09 02:38:37;;;;;;;28.80;13.05;;;;;;;;;;4844811;29;20063;-71
2022/03/09 02:41:03;;;;;;;33.50;13.45;;;;;;;;;;4858616;29;20044;-72
2022/03/09 02:43:29;;;;;;;28.63;13.18;;;;;;;;;;4862872;29;20045;-72
2022/03/09 02:45:55;;;;;;;26.65;13.00;;;;;;;;;;4862659;29;20100;-72
2022/03/09 02:48:21;;;;;;;26.17;13.25;;;;;;;;;;4862590;29;20060;-71
2022/03/09 02:50:47;;;;;;;33.75;12.80;;;;;;;;;;4850500;29;20040;-71
2022/03/09 02:53:13;;;;;;;28.58;13.60;;;;;;;;;;4847414;29;20041;-71
2022/03/09 02:55:40;;;;;;;27.40;13.57;;;;;;;;;;4862420;29;20044;-72
2022/03/09 02:58:06;;;;;;;29.75;13.73;;;;;;;;;;4846506;29;20048;-71
2022/03/09 03:00:32;;;;;;;28.05;13.82;;;;;;;;;;4851369;29;20513;-71
2022/03/09 03:02:58;;;;;;;29.00;13.52;;;;;;;;;;4851726;29;20072;-72
2022/03/09 03:05:24;;;;;;;29.67;13.85;;;;;;;;;;4844551;29;20045;-71
2022/03/09 03:07:50;;;;;;;34.80;14.70;;;;;;;;;;4877622;29;20554;-72
2022/03/09 03:10:16;;;;;;;35.53;14.45;;;;;;;;;;4862506;29;20039;-72
2022/03/09 03:12:42;;;;;;;39.28;14.95;;;;;;;;;;4862400;29;20053;-71
2022/03/09 03:15:08;;;;;;;27.75;13.57;;;;;;;;;;4862643;29;20041;-72
2022/03/09 03:17:36;;;;;;;29.77;13.88;;;1.90;99.90;;;;;;4862393;29;20047;-72
2022/03/09 03:20:03;;;;;;;32.17;14.52;;;2.10;99.90;;;;;;4859286;29;20402;-71
2022/03/09 03:22:29;;;;;;;33.72;14.48;;;;;;;;;;4856328;29;20130;-71
2022/03/09 03:24:55;;;;;;;32.08;14.70;;;;;;;;;;4849108;29;20379;-71
2022/03/09 03:27:22;;;;;;;35.45;14.15;;;;;;;;;;4862846;29;20041;-71
2022/03/09 03:29:48;;;;;;;32.30;13.73;;;;;;;;;;4851306;29;20048;-72
2022/03/09 03:32:14;;;;;;;32.78;13.40;;;;;;;;;;4856384;29;20093;-71
2022/03/09 03:34:40;;;;;;;36.45;13.68;;;;;;;;;;4847522;29;20124;-71
2022/03/09 03:37:06;;;;;;;40.10;14.10;;;;;;;;;;4843513;29;20398;-71
2022/03/09 03:39:32;;;;;;;32.13;14.45;;;;;;;;;;4865962;29;20105;-71
2022/03/09 03:41:58;;;;;;;33.50;13.95;;;;;;;;;;4860042;29;20124;-71
2022/03/09 03:44:25;;;;;;;33.45;15.30;;;;;;;;;;4847405;29;20052;-71
2022/03/09 03:46:51;;;;;;;32.50;14.88;;;;;;;;;;4851847;29;20057;-71
2022/03/09 03:49:17;;;;;;;29.42;13.48;;;;;;;;;;4865800;29;20053;-72
2022/03/09 03:51:43;;;;;;;35.45;14.30;;;;;;;;;;4846499;29;20435;-71
2022/03/09 03:54:10;;;;;;;32.75;15.05;;;;;;;;;;4850940;29;20045;-72
2022/03/09 03:56:36;;;;;;;31.90;14.73;;;;;;;;;;4849098;29;20052;-72
2022/03/09 03:59:02;;;;;;;36.72;15.48;;;;;;;;;;4865852;29;20133;-72
2022/03/09 04:01:28;;;;;;;33.75;14.30;;;;;;;;;;4865083;29;20053;-71
2022/03/09 04:03:54;;;;;;;38.28;16.23;;;;;;;;;;4847013;29;20107;-71
2022/03/09 04:06:20;;;;;;;32.30;15.00;;;;;;;;;;4831651;29;20060;-72
2022/03/09 04:08:46;;;;;;;33.72;15.35;;;;;;;;;;4848621;29;20497;-71
2022/03/09 04:11:13;;;;;;;31.33;14.80;;;;;;;;;;4865065;29;20048;-72
2022/03/09 04:13:39;;;;;;;34.38;15.50;;;;;;;;;;4850043;29;20098;-71
2022/03/09 04:16:04;;;;;;;34.67;14.23;;;2.00;99.90;;;;;;4846971;29;20100;-72
2022/03/09 04:18:30;;;;;;;32.97;14.07;;;;;;;;;;4845405;29;20045;-72
2022/03/09 04:20:57;;;;;;;34.00;15.80;;;;;;;;;;4865214;29;20045;-71
2022/03/09 04:23:23;;;;;;;42.30;15.73;;;;;;;;;;4852618;29;20050;-71
2022/03/09 04:25:49;;;;;;;32.08;14.65;;;;;;;;;;4846777;29;20395;-71
2022/03/09 04:28:15;;;;;;;33.72;14.77;;;;;;;;;;4857996;29;20548;-71
2022/03/09 04:30:41;;;;;;;38.60;16.05;;;;;;;;;;4865106;29;20044;-71
2022/03/09 04:33:07;;;;;;;33.47;14.60;;;;;;;;;;4864802;29;20041;-71
2022/03/09 04:35:34;;;;;;;34.33;14.70;;;;;;;;;;4864823;29;20052;-71
2022/03/09 04:38:00;;;;;;;38.95;16.35;;;;;;;;;;4856571;29;20047;-71
2022/03/09 04:40:27;;;;;;;35.03;15.55;;;;;;;;;;4853938;29;20076;-71
2022/03/09 04:42:53;;;;;;;40.92;16.27;;;;;;;;;;4864918;29;20454;-71
2022/03/09 04:45:19;;;;;;;37.00;15.80;;;;;;;;;;4864738;29;20486;-71
2022/03/09 04:47:45;;;;;;;34.88;15.48;;;;;;;;;;4850147;29;20053;-71
2022/03/09 04:50:11;;;;;;;34.60;14.25;;;;;;;;;;4845796;29;20410;-71
2022/03/09 04:52:37;;;;;;;34.90;17.23;;;;;;;;;;4846071;29;20045;-71
2022/03/09 04:55:03;;;;;;;34.72;14.88;;;1.50;99.90;;;;;;4846256;29;20128;-73
2022/03/09 04:57:29;;;;;;;40.50;15.93;;;;;;;;;;4845766;29;20046;-73
2022/03/09 04:59:55;;;;;;;38.05;15.52;;;;;;;;;;4845858;29;20037;-74
2022/03/09 05:02:21;;;;;;;34.72;14.35;;;;;;;;;;4845856;29;20049;-74
2022/03/09 05:04:47;;;;;;;37.58;15.98;;;;;;;;;;4846103;29;20061;-74
2022/03/09 05:07:13;;;;;;;36.97;16.77;;;;;;;;;;4845923;29;20077;-74
2022/03/09 05:09:39;;;;;;;38.47;17.23;;;;;;;;;;4845481;29;20050;-74
2022/03/09 05:12:06;;;;;;;35.85;15.45;;;;;;;;;;4846038;29;20529;-74
2022/03/09 05:14:32;;;;;;;33.53;15.43;;;;;;;;;;4845263;29;20045;-74
2022/03/09 05:16:58;;;;;;;36.97;16.17;;;;;;;;;;4845807;29;20049;-74
2022/03/09 05:19:24;;;;;;;43.80;16.45;;;;;;;;;;4845543;29;20046;-74
2022/03/09 05:21:50;;;;;;;36.25;15.63;;;;;;;;;;4845311;29;20136;-74
2022/03/09 05:24:17;;;;;;;35.97;15.73;;;;;;;;;;4845216;29;20049;-74
2022/03/09 05:26:46;;;;;;;38.95;15.98;;;;;;;;;;4830586;29;20049;-74
2022/03/09 05:29:12;;;;;;;36.70;15.60;;;;;;;;;;4845358;29;20053;-74
2022/03/09 05:31:38;;;;;;;40.83;16.00;;;;;;;;;;4845353;29;20128;-74
2022/03/09 05:34:04;;;;;;;37.15;16.40;;;;;;;;;;4845064;29;20121;-74
2022/03/09 05:36:30;;;;;;;36.53;15.98;;;;;;;;;;4830386;29;20137;-74
2022/03/09 05:38:56;;;;;;;35.33;15.38;;;;;;;;;;4827183;29;20513;-74
2022/03/09 05:41:23;;;;;;;37.28;15.20;;;;;;;;;;4824555;29;20053;-73
2022/03/09 05:43:50;;;;;;;37.88;15.48;;;;;;;;;;4845093;29;20045;-73
2022/03/09 05:46:16;;;;;;;37.75;16.45;;;;;;;;;;4847940;29;20505;-73
2022/03/09 05:48:42;;;;;;;36.22;15.57;;;;;;;;;;4847687;29;20409;-74
2022/03/09 05:51:09;;;;;;;40.42;16.05;;;;;;;;;;4860081;29;20045;-74
2022/03/09 05:53:35;;;;;;;37.88;15.98;;;;;;;;;;4839019;29;20037;-74
2022/03/09 05:56:01;;;;;;;39.00;16.70;;;1.40;99.90;;;;;;4863492;29;20048;-74
2022/03/09 05:58:27;;;;;;;39.15;15.63;;;;;;;;;;4863487;29;20041;-74
2022/03/09 06:00:53;;;;;;;37.22;15.80;;;;;;;;;;4860263;29;20106;-74
2022/03/09 06:03:19;;;;;;;38.03;16.20;;;;;;;;;;4852038;29;20057;-74
2022/03/09 06:05:45;;;;;;;43.17;16.67;;;;;;;;;;4863213;29;20048;-74
2022/03/09 06:08:11;;;;;;;40.60;14.95;;;;;;;;;;4862980;29;20049;-74
2022/03/09 06:10:37;;;;;;;38.72;15.43;;;;;;;;;;4857032;29;20045;-74
2022/03/09 06:13:03;;;;;;;37.00;15.13;;;;;;;;;;4849710;29;20402;-74
2022/03/09 06:15:29;;;;;;;40.00;16.73;;;;;;;;;;4862961;29;20041;-74
2022/03/09 06:17:55;;;;;;;39.85;17.33;;;;;;;;;;4844850;29;20041;-72
2022/03/09 06:20:23;;;;;;;42.13;16.98;;;;;;;;;;4860166;29;20112;-72
2022/03/09 06:22:49;;;;;;;40.97;16.05;;;;;;;;;;4863077;29;20053;-72
2022/03/09 06:25:16;;;;;;;42.15;17.08;;;;;;;;;;4863144;29;20049;-72
2022/03/09 06:27:46;;;;;;;42.20;17.35;;;;;;;;;;4862990;29;20047;-73
2022/03/09 06:30:13;;;;;;;40.75;16.95;;;;;;;;;;4852619;29;20554;-73
2022/03/09 06:32:39;;;;;;;40.40;17.00;;;;;;;;;;4854175;29;20049;-73
2022/03/09 06:35:06;;;;;;;36.80;16.23;;;1.50;99.90;;;;;;4862261;29;20105;-74
2022/03/09 06:37:32;;;;;;;39.28;16.38;;;1.50;99.90;;;;;;4844903;29;20066;-74
2022/03/09 06:39:59;;;;;;;40.25;16.92;;;;;;;;;;4861950;29;20069;-73
2022/03/09 06:42:25;;;;;;;39.50;16.38;;;;;;;;;;4859680;29;20132;-74
2022/03/09 06:44:51;;;;;;;41.50;16.02;;;;;;;;;;4853184;29;20051;-74
2022/03/09 06:47:17;;;;;;;38.33;16.50;;;;;;;;;;4862843;29;20064;-73
2022/03/09 06:49:44;;;;;;;39.22;16.65;;;;;;;;;;4855556;29;20573;-73
2022/03/09 06:52:10;;;;;;;52.30;19.02;;;;;;;;;;4858212;29;20057;-73
2022/03/09 06:54:36;;;;;;;42.35;16.23;;;;;;;;;;4850413;29;20037;-73
2022/03/09 06:57:02;;;;;;;42.63;16.20;;;;;;;;;;4862995;29;20041;-73
2022/03/09 06:59:28;;;;;;;37.28;16.63;;;;;;;;;;4863695;29;20045;-73
2022/03/09 07:01:54;;;;;;;40.40;16.23;;;;;;;;;;4863509;29;20052;-74
2022/03/09 07:04:20;;;;;;;42.13;16.10;;;;;;;;;;4850592;29;20106;-73
2022/03/09 07:06:46;;;;;;;43.42;16.98;;;;;;;;;;4863253;29;20049;-74
2022/03/09 07:09:12;;;;;;;44.67;16.48;;;;;;;;;;4865848;29;20049;-74
2022/03/09 07:11:39;;;;;;;33.42;15.77;;;;;;;;;;4866355;29;20136;-74
2022/03/09 07:14:05;;;;;;;39.78;17.63;;;;;;;;;;4866183;29;20045;-74
2022/03/09 07:16:31;;;;;;;42.00;16.92;;;;;;;;;;4866176;29;20052;-75
2022/03/09 07:18:57;;;;;;;37.38;15.85;;;;;;;;;;4850742;29;20052;-75
2022/03/09 07:21:23;;;;;;;42.15;16.88;;;;;;;;;;4865948;29;20041;-75
2022/03/09 07:23:49;;;;;;;37.38;16.60;;;;;;;;;;4863174;29;20396;-74
2022/03/09 07:26:15;;;;;;;41.15;16.98;;;;;;;;;;4862357;29;20431;-75
2022/03/09 07:28:41;;;;;;;40.13;16.58;;;;;;;;;;4866008;29;20044;-75
2022/03/09 07:31:07;;;;;;;35.95;16.27;;;;;;;;;;4865155;29;20041;-75
2022/03/09 07:33:33;;;;;;;41.17;16.92;;;;;;;;;;4859570;29;20038;-75
2022/03/09 07:36:00;;;;;;;41.38;17.52;;;;;;;;;;4856050;29;20076;-75
2022/03/09 07:38:27;;;;;;;43.15;17.10;;;1.90;99.90;;;;;;4839461;29;20048;-75
2022/03/09 07:40:53;;;;;;;37.45;16.10;;;;;;;;;;4857280;29;20041;-75
2022/03/09 07:43:19;;;;;;;42.60;17.48;;;;;;;;;;4860407;29;20471;-74
2022/03/09 07:45:45;;;;;;;32.50;15.20;;;;;;;;;;4848920;29;20037;-74
2022/03/09 07:48:12;;;;;;;41.92;17.08;;;;;;;;;;4846774;29;20089;-74
2022/03/09 07:50:38;;;;;;;36.42;16.05;;;;;;;;;;4847071;29;20450;-74
2022/03/09 07:53:05;;;;;;;43.03;17.30;;;;;;;;;;4846343;29;20390;-74
2022/03/09 07:55:31;;;;;;;32.15;15.00;;;;;;;;;;4847295;29;20093;-72
2022/03/09 07:57:57;;;;;;;38.75;15.82;;;;;;;;;;4847372;29;20102;-71
2022/03/09 08:00:23;;;;;;;40.53;16.20;;;;;;;;;;4847063;29;20398;-71
2022/03/09 08:02:49;;;;;;;38.53;16.90;;;;;;;;;;4846916;29;20049;-71
2022/03/09 08:05:16;;;;;;;38.97;16.63;;;;;;;;;;4847066;29;20045;-71
2022/03/09 08:07:42;;;;;;;40.42;16.75;;;;;;;;;;4846652;29;20049;-82
2022/03/09 08:10:09;;;;;;;41.55;16.80;;;3.20;99.90;;;;;;4846458;29;20045;-71
2022/03/09 08:12:35;;;;;;;33.35;15.88;;;;;;;;;;4855676;29;20053;-71
2022/03/09 08:15:01;;;;;;;35.67;15.98;;;;;;;;;;4877856;29;20041;-71
2022/03/09 08:17:27;;;;;;;38.17;15.68;;;;;;;;;;4865069;29;20108;-71
2022/03/09 08:19:54;;;;;;;39.13;15.95;;;;;;;;;;4883525;29;20040;-71
2022/03/09 08:22:21;;;;;;;41.13;17.02;;;3.40;99.90;;;;;;4883933;29;20531;-71
2022/03/09 08:24:47;;;;;;;37.85;16.42;;;;;;;;;;4883870;29;20049;-71
2022/03/09 08:27:13;;;;;;;33.17;15.60;;;;;;;;;;4883666;29;20374;-70
2022/03/09 08:29:40;;;;;;;30.63;15.10;;;;;;;;;;4883685;29;20048;-71
2022/03/09 08:32:06;;;;;;;37.78;15.80;;;;;;;;;;4883326;29;20501;-70
2022/03/09 08:34:32;;;;;;;34.40;14.57;;;;;;;;;;4883204;29;20041;-71
2022/03/09 08:36:58;;;;;;;36.58;15.80;;;;;;;;;;4883606;29;20092;-71
2022/03/09 08:39:24;;;;;;;31.90;15.30;;;;;;;;;;4884153;29;20060;-71
2022/03/09 08:41:50;;;;;;;36.00;15.07;;;;;;;;;;4883498;29;20079;-71
2022/03/09 08:44:16;;;;;;;33.95;14.60;;;;;;;;;;4883117;29;20044;-71
2022/03/09 08:46:43;;;;;;;32.08;14.98;;;;;;;;;;4898721;29;20057;-71
2022/03/09 08:49:09;;;;;;;29.20;14.82;;;;;;;;;;4883354;29;20090;-70
2022/03/09 08:51:36;;;;;;;53.33;18.40;;;;;;;;;;4867667;29;20052;-71
2022/03/09 08:54:02;;;;;;;33.22;14.52;;;;;;;;;;4883081;29;20516;-71
2022/03/09 08:56:29;;;;;;;30.48;13.88;;;;;;;;;;4864015;29;20052;-71
2022/03/09 08:58:55;;;;;;;30.35;14.05;;;4.30;99.80;;;;;;4883211;29;20037;-71
2022/03/09 09:01:24;;;;;;;36.70;15.73;;;4.70;99.90;;;;;;4882980;29;20056;-71
2022/03/09 09:03:50;;;;;;;28.55;13.82;;;;;;;;;;4883230;29;20106;-71
2022/03/09 09:06:17;;;;;;;33.42;14.75;;;;;;;;;;4883184;29;20043;-71
2022/03/09 09:08:43;;;;;;;38.20;15.23;;;;;;;;;;4883121;29;20041;-71
2022/03/09 09:11:09;;;;;;;31.35;14.73;;;;;;;;;;4882583;29;20076;-71
2022/03/09 09:13:35;;;;;;;32.90;14.00;;;;;;;;;;4882769;29;20135;-71
2022/03/09 09:16:01;;;;;;;34.50;14.93;;;;;;;;;;4882718;29;20047;-71
2022/03/09 09:18:27;;;;;;;34.75;13.75;;;;;;;;;;4882503;29;20077;-71
2022/03/09 09:20:54;;;;;;;30.10;15.07;;;;;;;;;;4882454;29;20036;-71
2022/03/09 09:23:21;;;;;;;31.02;14.57;;;;;;;;;;4881668;29;20564;-71
2022/03/09 09:25:47;;;;;;;35.42;14.07;;;;;;;;;;4867228;29;20057;-70
2022/03/09 09:28:13;;;;;;;31.17;14.48;;;;;;;;;;4882501;29;20048;-71
2022/03/09 09:30:40;;;;;;;34.28;14.88;;;;;;;;;;4882478;29;20049;-70
2022/03/09 09:33:06;;;;;;;28.27;14.05;;;;;;;;;;4866605;29;20041;-71
2022/03/09 09:35:32;;;;;;;31.50;14.43;;;;;;;;;;4882558;29;20087;-71
2022/03/09 09:38:06;;;;;;;27.52;13.68;;;;;;;;;;4882553;29;20044;-71
2022/03/09 09:40:45;;;;;;;26.10;13.32;;;;;;;;;;4882557;29;20076;-71
2022/03/09 09:43:13;;;;;;;33.10;13.52;;;5.50;98.80;;;;;;4882399;29;20135;-71
2022/03/09 09:45:40;;;;;;;30.05;13.70;;;5.70;98.60;;;;;;4882309;29;20401;-70
2022/03/09 09:48:07;;;;;;;29.60;13.70;;;;;;;;;;4866870;29;20064;-71
2022/03/09 09:50:34;;;;;;;36.80;14.07;;;;;;;;;;4847342;29;20049;-71
2022/03/09 09:53:04;;;;;;;27.45;13.60;;;5.80;98.70;;;;;;4844715;29;20439;-71
2022/03/09 09:55:30;;;;;;;28.35;13.85;;;6.20;99.90;;;;;;4844859;29;20041;-71
2022/03/09 09:57:56;;;;;;;32.97;14.90;;;;;;;;;;4844997;29;20045;-70
2022/03/09 10:00:23;;;;;;;24.73;12.70;;;;;;;;;;4844758;29;20504;-71
2022/03/09 10:02:49;;;;;;;27.05;12.88;;;;;;;;;;4845067;29;20098;-70
2022/03/09 10:05:16;;;;;;;28.35;13.02;;;6.40;98.00;;;;;;4844809;29;20060;-70
2022/03/09 10:08:04;;;;;;;26.48;13.20;;;6.60;97.60;;;;;;4844976;29;20065;-74
2022/03/09 10:10:34;;;;;;;27.20;13.43;;;;;;;;;;4844671;29;20045;-70
2022/03/09 10:13:21;;;;;;;33.53;13.45;;;6.60;97.30;;;;;;4844676;29;20569;-70
2022/03/09 10:16:12;;;;;;;24.95;12.75;;;6.60;97.90;;;;;;4844955;29;20420;-70
2022/03/09 10:18:45;;;;;;;30.42;13.30;;;6.70;97.40;;;;;;4837188;29;20502;-71
2022/03/09 10:21:13;;;;;;;23.92;12.57;;;;;;;;;;4844494;29;20046;-70
2022/03/09 10:23:51;;;;;;;25.10;12.07;;;6.80;97.60;;;;;;4844774;29;20045;-71
2022/03/09 10:26:17;;;;;;;23.13;12.40;;;;;;;;;;4844681;29;20060;-71
2022/03/09 10:28:55;;;;;;;22.20;12.88;;;7.00;96.70;;;;;;4829337;29;20132;-71
2022/03/09 10:31:51;;;;;;;28.55;13.02;;;7.00;97.50;;;;;;4844595;29;20053;-71
2022/03/09 10:34:19;;;;;;;22.05;11.85;;;7.30;97.00;;;;;;4832931;29;20080;-71
2022/03/09 10:37:11;;;;;;;22.63;12.68;;;7.40;97.20;;;;;;4844520;29;20148;-71
2022/03/09 10:39:38;;;;;;;24.63;13.45;;;7.50;96.40;;;;;;4841700;29;20065;-71
2022/03/09 10:42:05;;;;;;;24.00;12.90;;;;;;;;;;4844123;29;20051;-70
2022/03/09 10:44:42;;;;;;;23.15;12.85;;;;;;;;;;4844169;29;20052;-72
2022/03/09 10:47:08;;;;;;;21.63;11.75;;;;;;;;;;4851742;29;20073;-71
2022/03/09 10:49:34;;;;;;;26.23;13.77;;;;;;;;;;4863020;29;20049;-72
2022/03/09 10:52:01;;;;;;;25.42;11.70;;;;;;;;;;4847277;29;20525;-72
2022/03/09 10:54:34;;;;;;;24.30;12.65;;;8.00;96.10;;;;;;4847415;29;20132;-72
2022/03/09 10:57:12;;;;;;;23.02;12.55;;;8.10;96.50;;;;;;4862761;29;20045;-71
2022/03/09 10:59:46;;;;;;;29.25;13.95;;;8.40;96.50;;;;;;4862619;29;20053;-71
2022/03/09 11:02:13;;;;;;;22.55;12.52;;;;;;;;;;4862744;29;20146;-71
2022/03/09 11:04:40;;;;;;;24.70;11.77;;;;;;;;;;4862813;29;20104;-71
2022/03/09 11:07:07;;;;;;;23.17;11.98;;;;;;;;;;4862791;29;20053;-71
2022/03/09 11:09:36;;;;;;;21.27;11.93;;;8.70;95.60;;;;;;4862544;29;20045;-71
2022/03/09 11:12:02;;;;;;;22.42;12.35;;;;;;;;;;4862774;29;20402;-70
2022/03/09 11:14:29;;;;;;;31.02;13.82;;;;;;;;;;4862718;29;20071;-70
2022/03/09 11:17:00;;;;;;;23.50;12.02;;;;;;;;;;4862463;29;20051;-70
2022/03/09 11:19:27;;;;;;;27.73;13.63;;;;;;;;;;4847324;29;20037;-70
2022/03/09 11:21:53;;;;;;;23.88;12.98;;;;;;;;;;4846990;29;20047;-70
2022/03/09 11:24:20;;;;;;;25.17;13.35;;;;;;;;;;4862337;29;20082;-70
2022/03/09 11:26:48;;;;;;;24.83;12.57;;;9.30;94.30;;;;;;4862540;29;20052;-70
2022/03/09 11:29:14;;;;;;;24.33;12.73;;;;;;;;;;4862239;29;20091;-70
2022/03/09 11:31:43;;;;;;;24.83;13.32;;;;;;;;;;4862424;29;20523;-70
2022/03/09 11:34:38;;;;;;;23.73;12.57;;;9.90;94.00;;;;;;4862456;29;20041;-70
2022/03/09 11:37:18;;;;;;;23.27;13.00;;;9.90;93.80;;;;;;4862466;29;20045;-70
2022/03/09 11:40:10;;;;;;;32.90;13.00;;;10.10;93.50;;;;;;4847019;29;20051;-69
2022/03/09 11:42:37;;;;;;;25.02;13.40;;;10.00;92.90;;;;;;4862643;29;20048;-69
2022/03/09 11:45:15;;;;;;;28.50;13.25;;;9.80;96.10;;;;;;4861669;29;20526;-70
2022/03/09 11:47:58;;;;;;;22.75;12.23;;;10.40;93.00;;;;;;4865684;29;20470;-70
2022/03/09 11:50:25;;;;;;;22.77;12.80;;;10.40;96.00;;;;;;4865654;29;20446;-69
2022/03/09 11:53:04;;;;;;;24.20;12.77;;;10.50;96.20;;;;;;4865468;29;20053;-69
2022/03/09 11:55:31;;;;;;;26.40;12.82;;;;;;;;;;4850598;29;20457;-69
2022/03/09 11:58:05;;;;;;;25.73;13.60;;;10.70;91.60;;;;;;4865557;29;20055;-69
2022/03/09 12:00:31;;;;;;;23.20;12.48;;;;;;;;;;4865320;29;20088;-69
2022/03/09 12:02:58;;;;;;;22.45;12.95;;;;;;;;;;4849963;29;20050;-69
2022/03/09 12:05:40;;;;;;;22.95;12.82;;;11.20;92.50;;;;;;4849530;29;20109;-69
2022/03/09 12:08:06;;;;;;;;;;;11.40;91.80;;;;;;4866039;29;20048;-69
2022/03/09 12:10:51;;;;;;;21.73;12.75;;;11.40;91.10;;;;;;4865050;29;20376;-69
2022/03/09 12:13:32;;;;;;;24.83;12.82;;;11.50;91.30;;;;;;4865333;29;20049;-75
2022/03/09 12:16:24;;;;;;;23.52;12.68;;;11.70;90.60;;;;;;4865141;29;20040;-74
2022/03/09 12:19:04;;;;;;;26.10;13.27;;;11.70;90.40;;;;;;4849539;29;20037;-74
2022/03/09 12:21:35;;;;;;;23.27;12.98;;;11.90;94.20;;;;;;4865609;29;20556;-74
2022/03/09 12:24:01;;;;;;;20.40;12.05;;;;;;;;;;4865037;29;20052;-74
2022/03/09 12:26:39;;;;;;;24.45;12.85;;;12.10;90.00;;;;;;4881698;29;20044;-74
2022/03/09 12:29:20;;;;;;;23.63;13.40;;;12.30;90.00;;;;;;4849650;29;20041;-74
2022/03/09 12:31:59;;;;;;;23.15;12.75;;;12.20;90.50;;;;;;4864832;29;20045;-74
2022/03/09 12:34:29;;;;;;;23.63;13.90;;;12.50;90.10;;;;;;4865021;29;20044;-74
2022/03/09 12:36:55;;;;;;;27.80;13.95;;;;;;;;;;4849758;29;20049;-74
2022/03/09 12:39:22;;;;;;;26.40;14.43;;;12.60;89.80;;;;;;4865968;29;20098;-74
2022/03/09 12:41:52;;;;;;;25.52;14.15;;;12.70;87.60;;;;;;4865525;29;20418;-74
2022/03/09 12:44:19;;;;;;;27.42;13.45;;;;;;;;;;4849324;29;20041;-75
2022/03/09 12:46:49;;;;;;;27.35;14.18;;;13.00;88.90;;;;;;4864450;29;20156;-74
2022/03/09 12:49:20;;;;;;;24.88;13.43;;;;;;;;;;4864989;29;20184;-74
2022/03/09 12:51:58;;;;;;;25.60;14.18;;;13.50;92.70;;;;;;4864625;29;20049;-74
2022/03/09 12:54:29;;;;;;;29.02;14.98;;;13.60;92.30;;;;;;4864458;29;20367;-75
2022/03/09 12:56:56;;;;;;;26.95;14.05;;;;;;;;;;4864484;29;20490;-74
2022/03/09 12:59:22;;;;;;;25.48;14.65;;;;;;;;;;4864498;29;20490;-74
2022/03/09 13:01:54;;;;;;;28.85;15.23;;;13.70;91.90;;;;;;4864847;29;20048;-74
2022/03/09 13:04:22;;;;;;;26.65;15.23;;;13.70;87.30;;;;;;4864210;29;20052;-74
2022/03/09 13:06:50;;;;;;;25.75;13.85;;;;;;;;;;4864135;29;20135;-74
2022/03/09 13:09:21;;;;;;;28.27;14.77;;;13.90;84.50;;;;;;4864545;29;20462;-74
2022/03/09 13:11:47;;;;;;;27.35;14.60;;;14.60;91.70;;;;;;4864155;29;20053;-74
2022/03/09 13:14:15;;;;;;;26.75;14.55;;;14.30;91.40;;;;;;4864368;29;20127;-75
2022/03/09 13:16:41;;;;;;;27.63;15.02;;;;;;;;;;4864100;29;20068;-75
2022/03/09 13:19:07;;;;;;;28.35;15.10;;;;;;;;;;4864406;29;20047;-75
2022/03/09 13:21:34;;;;;;;29.88;15.50;;;;;;;;;;4848696;29;20045;-74
2022/03/09 13:24:14;;;;;;;28.48;15.55;;;14.40;85.10;;;;;;4864137;29;20072;-75
2022/03/09 13:26:44;;;;;;;26.15;15.60;;;15.10;91.00;;;;;;4864213;29;20107;-75
2022/03/09 13:29:20;;;;;;;30.73;15.13;;;14.80;84.90;;;;;;4864058;29;20045;-75
2022/03/09 13:32:02;;;;;;;28.73;15.52;;;14.40;90.50;;;;;;4863709;29;20048;-75
2022/03/09 13:34:31;;;;;;;28.23;14.98;;;14.90;84.20;;;;;;4863668;29;20041;-75
2022/03/09 13:37:17;;;;;;;31.98;15.98;;;15.10;82.30;;;;;;4863951;29;20060;-75
2022/03/09 13:39:44;;;;;;;28.65;15.70;;;14.40;90.20;;;;;;4863945;29;20081;-75
2022/03/09 13:42:34;;;;;;;30.83;15.77;;;15.00;83.30;;;;;;4863578;29;20040;-75
2022/03/09 13:45:06;;;;;;;30.95;16.35;;;15.10;81.60;;;;;;4863732;29;20063;-75
2022/03/09 13:47:48;;;;;;;35.28;17.20;;;15.10;82.30;;;;;;4880191;29;20088;-75
2022/03/09 13:50:26;;;;;;;28.17;16.00;;;15.40;83.00;;;;;;4863936;29;20521;-75
2022/03/09 13:53:07;;;;;;;32.05;16.70;;;15.30;89.20;;;;;;4863337;29;20331;-75
2022/03/09 13:55:41;;;;;;;30.30;16.42;;;15.30;82.30;;;;;;4863617;29;20587;-75
2022/03/09 13:58:13;;;;;;;32.63;17.65;;;15.50;81.90;;;;;;4863660;29;20101;-75